sensor_id;sensor_type;location;lat;lon;timestamp;P1;durP1;ratioP1;P2;durP2;ratioP2
33593;SDS011;19920;52.242;20.940;2022-11-04T00:01:57;21.73;;;10.82;;
33593;SDS011;19920;52.242;20.940;2022-11-04T00:04:24;21.45;;;9.60;;
33593;SDS011;19920;52.242;20.940;2022-11-04T00:06:51;21.08;;;9.57;;
33593;SDS011;19920;52.242;20.940;2022-11-04T00:09:19;26.50;;;9.95;;
33593;SDS011;19920;52.242;20.940;2022-11-04T00:11:46;18.77;;;9.35;;
33593;SDS011;19920;52.242;20.940;2022-11-04T00:14:31;24.30;;;10.50;;
33593;SDS011;19920;52.242;20.940;2022-11-04T00:16:57;18.13;;;9.00;;
33593;SDS011;19920;52.242;20.940;2022-11-04T00:19:42;24.45;;;9.73;;
33593;SDS011;19920;52.242;20.940;2022-11-04T00:22:28;19.55;;;9.10;;
33593;SDS011;19920;52.242;20.940;2022-11-04T00:25:13;19.73;;;9.20;;
33593;SDS011;19920;52.242;20.940;2022-11-04T00:28:01;21.85;;;9.57;;
33593;SDS011;19920;52.242;20.940;2022-11-04T00:30:55;18.90;;;9.52;;
33593;SDS011;19920;52.242;20.940;2022-11-04T00:33:22;19.67;;;9.40;;
33593;SDS011;19920;52.242;20.940;2022-11-04T00:35:52;20.67;;;9.83;;
33593;SDS011;19920;52.242;20.940;2022-11-04T00:38:19;23.35;;;9.85;;
33593;SDS011;19920;52.242;20.940;2022-11-04T00:40:45;20.55;;;10.05;;
33593;SDS011;19920;52.242;20.940;2022-11-04T00:43:11;18.05;;;9.68;;
33593;SDS011;19920;52.242;20.940;2022-11-04T00:45:37;22.77;;;9.40;;
33593;SDS011;19920;52.242;20.940;2022-11-04T00:48:04;19.45;;;9.35;;
33593;SDS011;19920;52.242;20.940;2022-11-04T00:50:30;28.02;;;9.93;;
33593;SDS011;19920;52.242;20.940;2022-11-04T00:52:59;18.25;;;9.63;;
33593;SDS011;19920;52.242;20.940;2022-11-04T00:55:26;17.98;;;9.45;;
33593;SDS011;19920;52.242;20.940;2022-11-04T00:57:51;21.92;;;10.02;;
33593;SDS011;19920;52.242;20.940;2022-11-04T01:00:17;21.65;;;9.90;;
33593;SDS011;19920;52.242;20.940;2022-11-04T01:02:44;23.65;;;10.75;;
33593;SDS011;19920;52.242;20.940;2022-11-04T01:05:10;20.80;;;10.38;;
33593;SDS011;19920;52.242;20.940;2022-11-04T01:07:36;22.27;;;10.57;;
33593;SDS011;19920;52.242;20.940;2022-11-04T01:10:02;21.13;;;11.15;;
33593;SDS011;19920;52.242;20.940;2022-11-04T01:12:28;25.98;;;10.20;;
33593;SDS011;19920;52.242;20.940;2022-11-04T01:14:53;23.95;;;10.63;;
33593;SDS011;19920;52.242;20.940;2022-11-04T01:17:19;18.92;;;10.10;;
33593;SDS011;19920;52.242;20.940;2022-11-04T01:19:44;20.35;;;10.18;;
33593;SDS011;19920;52.242;20.940;2022-11-04T01:22:10;20.67;;;8.73;;
33593;SDS011;19920;52.242;20.940;2022-11-04T01:24:36;22.27;;;10.43;;
33593;SDS011;19920;52.242;20.940;2022-11-04T01:27:01;19.38;;;10.38;;
33593;SDS011;19920;52.242;20.940;2022-11-04T01:29:27;27.33;;;9.73;;
33593;SDS011;19920;52.242;20.940;2022-11-04T01:31:52;17.77;;;9.52;;
33593;SDS011;19920;52.242;20.940;2022-11-04T01:34:18;21.08;;;9.38;;
33593;SDS011;19920;52.242;20.940;2022-11-04T01:36:44;19.65;;;9.18;;
33593;SDS011;19920;52.242;20.940;2022-11-04T01:39:10;19.50;;;9.32;;
33593;SDS011;19920;52.242;20.940;2022-11-04T01:41:36;21.98;;;9.60;;
33593;SDS011;19920;52.242;20.940;2022-11-04T01:44:42;17.08;;;9.48;;
33593;SDS011;19920;52.242;20.940;2022-11-04T01:47:40;20.10;;;10.13;;
33593;SDS011;19920;52.242;20.940;2022-11-04T01:52:44;22.40;;;9.23;;
33593;SDS011;19920;52.242;20.940;2022-11-04T01:55:13;16.02;;;9.25;;
33593;SDS011;19920;52.242;20.940;2022-11-04T01:57:43;19.27;;;9.80;;
33593;SDS011;19920;52.242;20.940;2022-11-04T02:00:11;19.95;;;9.55;;
33593;SDS011;19920;52.242;20.940;2022-11-04T02:02:59;21.02;;;9.85;;
33593;SDS011;19920;52.242;20.940;2022-11-04T02:05:26;18.50;;;9.80;;
33593;SDS011;19920;52.242;20.940;2022-11-04T02:07:54;19.48;;;9.73;;
33593;SDS011;19920;52.242;20.940;2022-11-04T02:10:22;19.65;;;9.70;;
33593;SDS011;19920;52.242;20.940;2022-11-04T02:12:52;22.10;;;9.13;;
33593;SDS011;19920;52.242;20.940;2022-11-04T02:15:19;20.38;;;9.52;;
33593;SDS011;19920;52.242;20.940;2022-11-04T02:26:35;19.50;;;9.45;;
33593;SDS011;19920;52.242;20.940;2022-11-04T02:34:33;18.63;;;8.57;;
33593;SDS011;19920;52.242;20.940;2022-11-04T02:37:53;17.98;;;8.60;;
33593;SDS011;19920;52.242;20.940;2022-11-04T02:42:49;17.70;;;8.98;;
33593;SDS011;19920;52.242;20.940;2022-11-04T02:47:57;17.88;;;8.35;;
33593;SDS011;19920;52.242;20.940;2022-11-04T02:50:41;16.20;;;8.40;;
33593;SDS011;19920;52.242;20.940;2022-11-04T02:53:15;17.95;;;8.70;;
33593;SDS011;19920;52.242;20.940;2022-11-04T02:55:47;16.98;;;7.90;;
33593;SDS011;19920;52.242;20.940;2022-11-04T02:58:24;14.38;;;7.97;;
33593;SDS011;19920;52.242;20.940;2022-11-04T03:00:58;20.33;;;8.57;;
33593;SDS011;19920;52.242;20.940;2022-11-04T03:03:39;15.65;;;7.78;;
33593;SDS011;19920;52.242;20.940;2022-11-04T03:06:09;16.83;;;8.40;;
33593;SDS011;19920;52.242;20.940;2022-11-04T03:08:39;20.15;;;8.55;;
33593;SDS011;19920;52.242;20.940;2022-11-04T03:11:19;17.52;;;8.27;;
33593;SDS011;19920;52.242;20.940;2022-11-04T03:16:39;16.38;;;8.00;;
33593;SDS011;19920;52.242;20.940;2022-11-04T03:22:03;18.15;;;7.63;;
33593;SDS011;19920;52.242;20.940;2022-11-04T03:24:33;16.83;;;8.20;;
33593;SDS011;19920;52.242;20.940;2022-11-04T03:27:00;15.93;;;8.57;;
33593;SDS011;19920;52.242;20.940;2022-11-04T03:29:38;17.40;;;7.63;;
33593;SDS011;19920;52.242;20.940;2022-11-04T03:35:05;19.85;;;8.60;;
33593;SDS011;19920;52.242;20.940;2022-11-04T03:37:32;15.73;;;7.97;;
33593;SDS011;19920;52.242;20.940;2022-11-04T03:39:58;18.73;;;8.25;;
33593;SDS011;19920;52.242;20.940;2022-11-04T03:42:24;17.83;;;8.25;;
33593;SDS011;19920;52.242;20.940;2022-11-04T03:44:53;15.85;;;7.88;;
33593;SDS011;19920;52.242;20.940;2022-11-04T03:47:20;14.68;;;7.78;;
33593;SDS011;19920;52.242;20.940;2022-11-04T03:49:48;20.08;;;7.72;;
33593;SDS011;19920;52.242;20.940;2022-11-04T03:52:18;15.57;;;8.30;;
33593;SDS011;19920;52.242;20.940;2022-11-04T03:54:45;15.15;;;7.85;;
33593;SDS011;19920;52.242;20.940;2022-11-04T04:00:18;12.95;;;7.43;;
33593;SDS011;19920;52.242;20.940;2022-11-04T04:03:03;19.20;;;8.05;;
33593;SDS011;19920;52.242;20.940;2022-11-04T04:05:46;16.50;;;7.20;;
33593;SDS011;19920;52.242;20.940;2022-11-04T04:08:30;19.33;;;7.70;;
33593;SDS011;19920;52.242;20.940;2022-11-04T04:13:53;15.63;;;7.57;;
33593;SDS011;19920;52.242;20.940;2022-11-04T04:17:02;16.02;;;7.60;;
33593;SDS011;19920;52.242;20.940;2022-11-04T04:19:44;16.00;;;7.75;;
33593;SDS011;19920;52.242;20.940;2022-11-04T04:22:21;15.38;;;7.53;;
33593;SDS011;19920;52.242;20.940;2022-11-04T04:24:50;15.25;;;7.57;;
33593;SDS011;19920;52.242;20.940;2022-11-04T04:27:37;16.48;;;8.05;;
33593;SDS011;19920;52.242;20.940;2022-11-04T04:30:05;12.50;;;7.50;;
33593;SDS011;19920;52.242;20.940;2022-11-04T04:32:37;13.48;;;7.32;;
33593;SDS011;19920;52.242;20.940;2022-11-04T04:35:06;16.23;;;7.90;;
33593;SDS011;19920;52.242;20.940;2022-11-04T04:37:52;16.63;;;7.50;;
33593;SDS011;19920;52.242;20.940;2022-11-04T04:40:42;16.48;;;7.53;;
33593;SDS011;19920;52.242;20.940;2022-11-04T04:43:31;12.32;;;7.63;;
33593;SDS011;19920;52.242;20.940;2022-11-04T04:46:15;12.48;;;7.10;;
33593;SDS011;19920;52.242;20.940;2022-11-04T04:48:40;18.90;;;7.35;;
33593;SDS011;19920;52.242;20.940;2022-11-04T04:51:06;16.27;;;7.53;;
33593;SDS011;19920;52.242;20.940;2022-11-04T04:53:32;14.77;;;7.68;;
33593;SDS011;19920;52.242;20.940;2022-11-04T04:55:57;12.38;;;7.22;;
33593;SDS011;19920;52.242;20.940;2022-11-04T04:58:23;15.43;;;7.43;;
33593;SDS011;19920;52.242;20.940;2022-11-04T05:00:49;16.52;;;7.68;;
33593;SDS011;19920;52.242;20.940;2022-11-04T05:03:14;15.02;;;7.57;;
33593;SDS011;19920;52.242;20.940;2022-11-04T05:05:40;19.95;;;8.77;;
33593;SDS011;19920;52.242;20.940;2022-11-04T05:08:06;14.70;;;8.27;;
33593;SDS011;19920;52.242;20.940;2022-11-04T05:10:32;15.75;;;8.13;;
33593;SDS011;19920;52.242;20.940;2022-11-04T05:12:58;16.98;;;6.93;;
33593;SDS011;19920;52.242;20.940;2022-11-04T05:15:43;12.68;;;7.22;;
33593;SDS011;19920;52.242;20.940;2022-11-04T05:18:09;15.68;;;8.00;;
33593;SDS011;19920;52.242;20.940;2022-11-04T05:20:35;14.45;;;7.47;;
33593;SDS011;19920;52.242;20.940;2022-11-04T05:23:03;12.45;;;6.93;;
33593;SDS011;19920;52.242;20.940;2022-11-04T05:25:28;20.63;;;7.50;;
33593;SDS011;19920;52.242;20.940;2022-11-04T05:27:57;15.48;;;6.72;;
33593;SDS011;19920;52.242;20.940;2022-11-04T05:30:24;15.85;;;7.72;;
33593;SDS011;19920;52.242;20.940;2022-11-04T05:32:50;14.98;;;7.88;;
33593;SDS011;19920;52.242;20.940;2022-11-04T05:35:15;15.82;;;6.90;;
33593;SDS011;19920;52.242;20.940;2022-11-04T05:37:41;16.80;;;7.43;;
33593;SDS011;19920;52.242;20.940;2022-11-04T05:40:07;16.05;;;7.45;;
33593;SDS011;19920;52.242;20.940;2022-11-04T05:42:33;13.85;;;7.45;;
33593;SDS011;19920;52.242;20.940;2022-11-04T05:45:00;13.77;;;7.63;;
33593;SDS011;19920;52.242;20.940;2022-11-04T05:47:26;15.75;;;7.80;;
33593;SDS011;19920;52.242;20.940;2022-11-04T05:49:52;15.10;;;7.45;;
33593;SDS011;19920;52.242;20.940;2022-11-04T05:52:18;13.18;;;7.60;;
33593;SDS011;19920;52.242;20.940;2022-11-04T05:54:43;13.48;;;6.60;;
33593;SDS011;19920;52.242;20.940;2022-11-04T05:57:09;14.02;;;7.68;;
33593;SDS011;19920;52.242;20.940;2022-11-04T05:59:35;12.20;;;7.22;;
33593;SDS011;19920;52.242;20.940;2022-11-04T06:02:01;17.05;;;7.43;;
33593;SDS011;19920;52.242;20.940;2022-11-04T06:04:27;14.88;;;6.82;;
33593;SDS011;19920;52.242;20.940;2022-11-04T06:06:52;13.00;;;7.25;;
33593;SDS011;19920;52.242;20.940;2022-11-04T06:09:18;12.68;;;7.13;;
33593;SDS011;19920;52.242;20.940;2022-11-04T06:11:44;14.77;;;7.07;;
33593;SDS011;19920;52.242;20.940;2022-11-04T06:14:10;14.95;;;7.15;;
33593;SDS011;19920;52.242;20.940;2022-11-04T06:16:36;15.82;;;7.68;;
33593;SDS011;19920;52.242;20.940;2022-11-04T06:19:02;15.70;;;7.15;;
33593;SDS011;19920;52.242;20.940;2022-11-04T06:21:28;15.40;;;7.22;;
33593;SDS011;19920;52.242;20.940;2022-11-04T06:23:55;15.23;;;6.65;;
33593;SDS011;19920;52.242;20.940;2022-11-04T06:26:22;10.82;;;6.70;;
33593;SDS011;19920;52.242;20.940;2022-11-04T06:28:49;14.25;;;6.50;;
33593;SDS011;19920;52.242;20.940;2022-11-04T06:31:15;16.17;;;7.22;;
33593;SDS011;19920;52.242;20.940;2022-11-04T06:33:42;11.40;;;6.68;;
33593;SDS011;19920;52.242;20.940;2022-11-04T06:36:09;13.73;;;6.55;;
33593;SDS011;19920;52.242;20.940;2022-11-04T06:38:37;17.45;;;7.32;;
33593;SDS011;19920;52.242;20.940;2022-11-04T06:41:04;18.67;;;7.20;;
33593;SDS011;19920;52.242;20.940;2022-11-04T06:43:30;13.13;;;6.60;;
33593;SDS011;19920;52.242;20.940;2022-11-04T06:45:57;14.55;;;7.03;;
33593;SDS011;19920;52.242;20.940;2022-11-04T06:48:24;14.90;;;6.82;;
33593;SDS011;19920;52.242;20.940;2022-11-04T06:50:51;14.73;;;6.88;;
33593;SDS011;19920;52.242;20.940;2022-11-04T06:53:17;13.70;;;6.57;;
33593;SDS011;19920;52.242;20.940;2022-11-04T06:55:43;12.75;;;6.68;;
33593;SDS011;19920;52.242;20.940;2022-11-04T06:58:09;15.45;;;7.10;;
33593;SDS011;19920;52.242;20.940;2022-11-04T07:00:35;13.95;;;6.63;;
33593;SDS011;19920;52.242;20.940;2022-11-04T07:03:01;13.02;;;6.70;;
33593;SDS011;19920;52.242;20.940;2022-11-04T07:05:26;14.00;;;7.68;;
33593;SDS011;19920;52.242;20.940;2022-11-04T07:07:52;15.85;;;7.53;;
33593;SDS011;19920;52.242;20.940;2022-11-04T07:10:18;15.93;;;7.70;;
33593;SDS011;19920;52.242;20.940;2022-11-04T07:12:43;12.45;;;6.97;;
33593;SDS011;19920;52.242;20.940;2022-11-04T07:15:09;12.98;;;6.70;;
33593;SDS011;19920;52.242;20.940;2022-11-04T07:17:35;13.70;;;6.95;;
33593;SDS011;19920;52.242;20.940;2022-11-04T07:20:01;15.15;;;7.55;;
33593;SDS011;19920;52.242;20.940;2022-11-04T07:22:29;11.75;;;6.90;;
33593;SDS011;19920;52.242;20.940;2022-11-04T07:24:55;16.25;;;7.03;;
33593;SDS011;19920;52.242;20.940;2022-11-04T07:27:20;12.88;;;6.80;;
33593;SDS011;19920;52.242;20.940;2022-11-04T07:29:46;15.10;;;7.18;;
33593;SDS011;19920;52.242;20.940;2022-11-04T07:32:12;13.73;;;7.13;;
33593;SDS011;19920;52.242;20.940;2022-11-04T07:34:38;12.55;;;6.70;;
33593;SDS011;19920;52.242;20.940;2022-11-04T07:37:03;13.88;;;6.82;;
33593;SDS011;19920;52.242;20.940;2022-11-04T07:39:29;13.25;;;6.95;;
33593;SDS011;19920;52.242;20.940;2022-11-04T07:41:55;10.95;;;6.22;;
33593;SDS011;19920;52.242;20.940;2022-11-04T07:44:21;11.70;;;6.75;;
33593;SDS011;19920;52.242;20.940;2022-11-04T07:46:47;12.07;;;7.13;;
33593;SDS011;19920;52.242;20.940;2022-11-04T07:49:13;13.82;;;7.60;;
33593;SDS011;19920;52.242;20.940;2022-11-04T07:51:39;13.60;;;7.50;;
33593;SDS011;19920;52.242;20.940;2022-11-04T07:54:04;12.27;;;7.28;;
33593;SDS011;19920;52.242;20.940;2022-11-04T07:56:30;17.02;;;7.82;;
33593;SDS011;19920;52.242;20.940;2022-11-04T07:58:56;14.77;;;8.20;;
33593;SDS011;19920;52.242;20.940;2022-11-04T08:01:22;15.57;;;7.82;;
33593;SDS011;19920;52.242;20.940;2022-11-04T08:03:49;15.55;;;7.38;;
33593;SDS011;19920;52.242;20.940;2022-11-04T08:06:15;14.38;;;7.65;;
33593;SDS011;19920;52.242;20.940;2022-11-04T08:08:42;14.80;;;7.90;;
33593;SDS011;19920;52.242;20.940;2022-11-04T08:11:09;14.93;;;7.50;;
33593;SDS011;19920;52.242;20.940;2022-11-04T08:13:36;11.63;;;7.10;;
33593;SDS011;19920;52.242;20.940;2022-11-04T08:16:06;17.00;;;7.97;;
33593;SDS011;19920;52.242;20.940;2022-11-04T08:18:36;18.25;;;8.00;;
33593;SDS011;19920;52.242;20.940;2022-11-04T08:21:02;14.93;;;7.80;;
33593;SDS011;19920;52.242;20.940;2022-11-04T08:23:29;14.32;;;7.18;;
33593;SDS011;19920;52.242;20.940;2022-11-04T08:25:55;16.27;;;7.70;;
33593;SDS011;19920;52.242;20.940;2022-11-04T08:28:21;16.67;;;7.75;;
33593;SDS011;19920;52.242;20.940;2022-11-04T08:33:19;15.88;;;8.27;;
33593;SDS011;19920;52.242;20.940;2022-11-04T08:35:45;14.60;;;7.82;;
33593;SDS011;19920;52.242;20.940;2022-11-04T08:38:11;14.30;;;8.10;;
33593;SDS011;19920;52.242;20.940;2022-11-04T08:40:37;17.40;;;8.13;;
33593;SDS011;19920;52.242;20.940;2022-11-04T08:43:03;15.48;;;8.25;;
33593;SDS011;19920;52.242;20.940;2022-11-04T08:45:28;21.13;;;8.23;;
33593;SDS011;19920;52.242;20.940;2022-11-04T08:47:54;15.32;;;8.20;;
33593;SDS011;19920;52.242;20.940;2022-11-04T08:50:20;19.52;;;8.35;;
33593;SDS011;19920;52.242;20.940;2022-11-04T08:52:51;14.93;;;8.50;;
33593;SDS011;19920;52.242;20.940;2022-11-04T08:55:17;18.33;;;8.73;;
33593;SDS011;19920;52.242;20.940;2022-11-04T08:57:43;14.77;;;8.05;;
33593;SDS011;19920;52.242;20.940;2022-11-04T09:00:09;16.85;;;8.38;;
33593;SDS011;19920;52.242;20.940;2022-11-04T09:02:35;17.30;;;8.63;;
33593;SDS011;19920;52.242;20.940;2022-11-04T09:05:01;16.70;;;7.88;;
33593;SDS011;19920;52.242;20.940;2022-11-04T09:07:27;14.38;;;8.40;;
33593;SDS011;19920;52.242;20.940;2022-11-04T09:09:53;17.48;;;8.35;;
33593;SDS011;19920;52.242;20.940;2022-11-04T09:12:19;14.65;;;7.90;;
33593;SDS011;19920;52.242;20.940;2022-11-04T09:14:45;17.10;;;8.27;;
33593;SDS011;19920;52.242;20.940;2022-11-04T09:17:11;15.75;;;8.38;;
33593;SDS011;19920;52.242;20.940;2022-11-04T09:19:36;14.40;;;8.10;;
33593;SDS011;19920;52.242;20.940;2022-11-04T09:22:02;15.90;;;8.48;;
33593;SDS011;19920;52.242;20.940;2022-11-04T09:24:28;17.17;;;7.72;;
33593;SDS011;19920;52.242;20.940;2022-11-04T09:26:54;14.52;;;7.90;;
33593;SDS011;19920;52.242;20.940;2022-11-04T09:29:19;17.75;;;9.10;;
33593;SDS011;19920;52.242;20.940;2022-11-04T09:31:45;13.82;;;8.30;;
33593;SDS011;19920;52.242;20.940;2022-11-04T09:34:11;16.30;;;8.15;;
33593;SDS011;19920;52.242;20.940;2022-11-04T09:36:36;14.88;;;7.95;;
33593;SDS011;19920;52.242;20.940;2022-11-04T09:39:03;15.05;;;8.02;;
33593;SDS011;19920;52.242;20.940;2022-11-04T09:47:22;16.98;;;8.35;;
33593;SDS011;19920;52.242;20.940;2022-11-04T09:49:49;14.18;;;7.82;;
33593;SDS011;19920;52.242;20.940;2022-11-04T09:52:29;15.98;;;8.20;;
33593;SDS011;19920;52.242;20.940;2022-11-04T09:55:40;12.85;;;7.70;;
33593;SDS011;19920;52.242;20.940;2022-11-04T09:57:59;13.82;;;7.95;;
33593;SDS011;19920;52.242;20.940;2022-11-04T10:00:25;16.40;;;7.95;;
33593;SDS011;19920;52.242;20.940;2022-11-04T10:08:27;17.15;;;8.38;;
33593;SDS011;19920;52.242;20.940;2022-11-04T10:14:36;14.98;;;8.10;;
33593;SDS011;19920;52.242;20.940;2022-11-04T10:22:11;17.17;;;8.48;;
33593;SDS011;19920;52.242;20.940;2022-11-04T10:24:48;13.65;;;8.30;;
33593;SDS011;19920;52.242;20.940;2022-11-04T10:27:37;15.57;;;7.93;;
33593;SDS011;19920;52.242;20.940;2022-11-04T10:30:20;16.38;;;8.20;;
33593;SDS011;19920;52.242;20.940;2022-11-04T10:37:45;17.58;;;8.02;;
33593;SDS011;19920;52.242;20.940;2022-11-04T10:40:31;16.52;;;8.02;;
33593;SDS011;19920;52.242;20.940;2022-11-04T10:43:00;16.27;;;8.18;;
33593;SDS011;19920;52.242;20.940;2022-11-04T10:45:36;15.85;;;8.25;;
33593;SDS011;19920;52.242;20.940;2022-11-04T10:48:13;16.20;;;8.32;;
33593;SDS011;19920;52.242;20.940;2022-11-04T10:51:12;15.68;;;8.30;;
33593;SDS011;19920;52.242;20.940;2022-11-04T10:53:46;14.63;;;7.90;;
33593;SDS011;19920;52.242;20.940;2022-11-04T10:56:24;15.20;;;8.18;;
33593;SDS011;19920;52.242;20.940;2022-11-04T10:59:27;21.50;;;8.48;;
33593;SDS011;19920;52.242;20.940;2022-11-04T11:02:01;15.68;;;8.48;;
33593;SDS011;19920;52.242;20.940;2022-11-04T11:04:34;14.27;;;7.85;;
33593;SDS011;19920;52.242;20.940;2022-11-04T11:07:03;15.30;;;7.80;;
33593;SDS011;19920;52.242;20.940;2022-11-04T11:12:16;18.10;;;8.95;;
33593;SDS011;19920;52.242;20.940;2022-11-04T11:14:50;14.23;;;8.85;;
33593;SDS011;19920;52.242;20.940;2022-11-04T11:17:17;13.88;;;8.27;;
33593;SDS011;19920;52.242;20.940;2022-11-04T11:19:49;16.73;;;8.95;;
33593;SDS011;19920;52.242;20.940;2022-11-04T11:33:03;15.25;;;8.00;;
33593;SDS011;19920;52.242;20.940;2022-11-04T11:35:58;13.68;;;7.43;;
33593;SDS011;19920;52.242;20.940;2022-11-04T11:38:49;13.00;;;7.32;;
33593;SDS011;19920;52.242;20.940;2022-11-04T11:41:22;13.95;;;7.60;;
33593;SDS011;19920;52.242;20.940;2022-11-04T11:43:55;14.27;;;7.43;;
33593;SDS011;19920;52.242;20.940;2022-11-04T11:46:29;16.70;;;8.13;;
33593;SDS011;19920;52.242;20.940;2022-11-04T11:48:58;12.95;;;7.22;;
33593;SDS011;19920;52.242;20.940;2022-11-04T11:51:30;16.20;;;7.72;;
33593;SDS011;19920;52.242;20.940;2022-11-04T11:56:43;14.30;;;6.82;;
33593;SDS011;19920;52.242;20.940;2022-11-04T11:59:18;14.23;;;6.90;;
33593;SDS011;19920;52.242;20.940;2022-11-04T12:01:56;11.38;;;7.65;;
33593;SDS011;19920;52.242;20.940;2022-11-04T12:04:41;13.02;;;7.28;;
33593;SDS011;19920;52.242;20.940;2022-11-04T12:17:35;11.80;;;7.35;;
33593;SDS011;19920;52.242;20.940;2022-11-04T12:34:36;13.73;;;7.55;;
33593;SDS011;19920;52.242;20.940;2022-11-04T12:42:48;13.07;;;8.02;;
33593;SDS011;19920;52.242;20.940;2022-11-04T13:02:35;16.63;;;8.07;;
33593;SDS011;19920;52.242;20.940;2022-11-04T13:10:40;13.77;;;7.28;;
33593;SDS011;19920;52.242;20.940;2022-11-04T13:13:35;17.70;;;13.38;;
33593;SDS011;19920;52.242;20.940;2022-11-04T13:16:05;23.35;;;12.70;;
33593;SDS011;19920;52.242;20.940;2022-11-04T13:18:36;15.23;;;8.77;;
33593;SDS011;19920;52.242;20.940;2022-11-04T13:21:06;10.70;;;7.25;;
33593;SDS011;19920;52.242;20.940;2022-11-04T13:26:40;12.32;;;7.15;;
33593;SDS011;19920;52.242;20.940;2022-11-04T13:29:06;15.15;;;7.65;;
33593;SDS011;19920;52.242;20.940;2022-11-04T13:31:59;12.85;;;7.28;;
33593;SDS011;19920;52.242;20.940;2022-11-04T13:39:41;16.40;;;7.77;;
33593;SDS011;19920;52.242;20.940;2022-11-04T13:44:55;13.73;;;7.18;;
33593;SDS011;19920;52.242;20.940;2022-11-04T13:47:33;13.55;;;6.70;;
33593;SDS011;19920;52.242;20.940;2022-11-04T13:50:01;12.60;;;6.93;;
33593;SDS011;19920;52.242;20.940;2022-11-04T13:52:30;11.70;;;6.70;;
33593;SDS011;19920;52.242;20.940;2022-11-04T13:55:01;14.38;;;7.03;;
33593;SDS011;19920;52.242;20.940;2022-11-04T13:57:29;12.13;;;6.93;;
33593;SDS011;19920;52.242;20.940;2022-11-04T14:18:51;13.32;;;6.43;;
33593;SDS011;19920;52.242;20.940;2022-11-04T14:23:57;14.07;;;6.38;;
33593;SDS011;19920;52.242;20.940;2022-11-04T14:26:44;14.18;;;7.18;;
33593;SDS011;19920;52.242;20.940;2022-11-04T14:29:19;12.95;;;7.03;;
33593;SDS011;19920;52.242;20.940;2022-11-04T14:31:54;14.40;;;7.45;;
33593;SDS011;19920;52.242;20.940;2022-11-04T14:36:56;10.65;;;6.88;;
33593;SDS011;19920;52.242;20.940;2022-11-04T14:39:28;11.77;;;6.95;;
33593;SDS011;19920;52.242;20.940;2022-11-04T14:42:04;12.18;;;6.97;;
33593;SDS011;19920;52.242;20.940;2022-11-04T14:47:23;12.63;;;6.97;;
33593;SDS011;19920;52.242;20.940;2022-11-04T14:52:25;11.65;;;7.22;;
33593;SDS011;19920;52.242;20.940;2022-11-04T14:54:55;16.58;;;7.53;;
33593;SDS011;19920;52.242;20.940;2022-11-04T14:57:27;13.25;;;7.20;;
33593;SDS011;19920;52.242;20.940;2022-11-04T14:59:54;13.43;;;7.20;;
33593;SDS011;19920;52.242;20.940;2022-11-04T15:02:24;15.77;;;7.75;;
33593;SDS011;19920;52.242;20.940;2022-11-04T15:04:57;15.90;;;7.38;;
33593;SDS011;19920;52.242;20.940;2022-11-04T15:07:34;17.17;;;7.97;;
33593;SDS011;19920;52.242;20.940;2022-11-04T15:10:23;14.48;;;7.47;;
33593;SDS011;19920;52.242;20.940;2022-11-04T15:12:50;12.77;;;7.25;;
33593;SDS011;19920;52.242;20.940;2022-11-04T15:15:29;17.25;;;7.57;;
33593;SDS011;19920;52.242;20.940;2022-11-04T15:17:59;16.58;;;7.78;;
33593;SDS011;19920;52.242;20.940;2022-11-04T15:20:26;14.18;;;7.32;;
33593;SDS011;19920;52.242;20.940;2022-11-04T15:22:54;16.83;;;7.43;;
33593;SDS011;19920;52.242;20.940;2022-11-04T15:25:22;13.93;;;8.05;;
33593;SDS011;19920;52.242;20.940;2022-11-04T15:27:48;16.80;;;8.05;;
33593;SDS011;19920;52.242;20.940;2022-11-04T15:30:17;12.85;;;7.78;;
33593;SDS011;19920;52.242;20.940;2022-11-04T15:32:58;15.80;;;7.65;;
33593;SDS011;19920;52.242;20.940;2022-11-04T15:35:26;13.43;;;8.45;;
33593;SDS011;19920;52.242;20.940;2022-11-04T15:37:54;14.40;;;7.72;;
33593;SDS011;19920;52.242;20.940;2022-11-04T15:40:20;16.25;;;8.02;;
33593;SDS011;19920;52.242;20.940;2022-11-04T15:42:47;13.15;;;7.65;;
33593;SDS011;19920;52.242;20.940;2022-11-04T15:50:57;13.82;;;8.05;;
33593;SDS011;19920;52.242;20.940;2022-11-04T15:53:27;17.35;;;8.93;;
33593;SDS011;19920;52.242;20.940;2022-11-04T15:55:53;15.18;;;9.02;;
33593;SDS011;19920;52.242;20.940;2022-11-04T15:58:19;15.20;;;8.63;;
33593;SDS011;19920;52.242;20.940;2022-11-04T16:00:52;17.77;;;8.95;;
33593;SDS011;19920;52.242;20.940;2022-11-04T16:03:20;17.90;;;9.02;;
33593;SDS011;19920;52.242;20.940;2022-11-04T16:06:01;19.15;;;9.13;;
33593;SDS011;19920;52.242;20.940;2022-11-04T16:08:31;16.55;;;8.95;;
33593;SDS011;19920;52.242;20.940;2022-11-04T16:13:52;17.15;;;9.43;;
33593;SDS011;19920;52.242;20.940;2022-11-04T16:16:38;20.17;;;8.95;;
33593;SDS011;19920;52.242;20.940;2022-11-04T16:19:03;19.15;;;9.00;;
33593;SDS011;19920;52.242;20.940;2022-11-04T16:21:31;16.58;;;9.25;;
33593;SDS011;19920;52.242;20.940;2022-11-04T16:24:03;17.35;;;9.85;;
33593;SDS011;19920;52.242;20.940;2022-11-04T16:26:39;16.17;;;9.27;;
33593;SDS011;19920;52.242;20.940;2022-11-04T16:29:09;20.02;;;9.45;;
33593;SDS011;19920;52.242;20.940;2022-11-04T16:31:43;18.30;;;9.02;;
33593;SDS011;19920;52.242;20.940;2022-11-04T16:34:10;15.23;;;8.95;;
33593;SDS011;19920;52.242;20.940;2022-11-04T16:36:37;16.42;;;8.75;;
33593;SDS011;19920;52.242;20.940;2022-11-04T16:39:03;18.38;;;9.18;;
33593;SDS011;19920;52.242;20.940;2022-11-04T16:41:39;21.58;;;9.13;;
33593;SDS011;19920;52.242;20.940;2022-11-04T16:44:08;16.52;;;8.90;;
33593;SDS011;19920;52.242;20.940;2022-11-04T16:46:42;16.58;;;9.15;;
33593;SDS011;19920;52.242;20.940;2022-11-04T16:49:10;18.40;;;9.13;;
33593;SDS011;19920;52.242;20.940;2022-11-04T16:51:39;18.50;;;9.70;;
33593;SDS011;19920;52.242;20.940;2022-11-04T16:54:04;17.63;;;9.40;;
33593;SDS011;19920;52.242;20.940;2022-11-04T16:56:30;17.80;;;9.27;;
33593;SDS011;19920;52.242;20.940;2022-11-04T16:58:58;17.48;;;9.65;;
33593;SDS011;19920;52.242;20.940;2022-11-04T17:01:23;19.67;;;9.38;;
33593;SDS011;19920;52.242;20.940;2022-11-04T17:03:49;16.85;;;9.38;;
33593;SDS011;19920;52.242;20.940;2022-11-04T17:06:15;16.35;;;10.65;;
33593;SDS011;19920;52.242;20.940;2022-11-04T17:08:41;17.90;;;8.95;;
33593;SDS011;19920;52.242;20.940;2022-11-04T17:11:08;17.70;;;9.50;;
33593;SDS011;19920;52.242;20.940;2022-11-04T17:13:34;20.30;;;9.60;;
33593;SDS011;19920;52.242;20.940;2022-11-04T17:16:00;18.58;;;9.82;;
33593;SDS011;19920;52.242;20.940;2022-11-04T17:18:28;18.20;;;9.60;;
33593;SDS011;19920;52.242;20.940;2022-11-04T17:20:55;15.77;;;9.80;;
33593;SDS011;19920;52.242;20.940;2022-11-04T17:23:21;20.05;;;9.98;;
33593;SDS011;19920;52.242;20.940;2022-11-04T17:25:47;20.58;;;10.20;;
33593;SDS011;19920;52.242;20.940;2022-11-04T17:28:13;19.23;;;10.65;;
33593;SDS011;19920;52.242;20.940;2022-11-04T17:30:42;19.20;;;10.65;;
33593;SDS011;19920;52.242;20.940;2022-11-04T17:33:18;17.52;;;9.98;;
33593;SDS011;19920;52.242;20.940;2022-11-04T17:35:44;16.70;;;10.00;;
33593;SDS011;19920;52.242;20.940;2022-11-04T17:38:12;16.00;;;9.68;;
33593;SDS011;19920;52.242;20.940;2022-11-04T17:40:38;18.10;;;9.82;;
33593;SDS011;19920;52.242;20.940;2022-11-04T17:43:23;17.10;;;10.65;;